sensor_id;sensor_type;location;lat;lon;timestamp;temperature;humidity
3416;DHT22;1721;51.238;9.562;2022-10-23T00:01:20;14.70;98.70
3416;DHT22;1721;51.238;9.562;2022-10-23T00:03:50;14.60;98.60
3416;DHT22;1721;51.238;9.562;2022-10-23T00:06:16;14.70;98.70
3416;DHT22;1721;51.238;9.562;2022-10-23T00:08:42;14.70;98.60
3416;DHT22;1721;51.238;9.562;2022-10-23T00:11:17;14.70;98.50
3416;DHT22;1721;51.238;9.562;2022-10-23T00:13:43;14.70;98.50
3416;DHT22;1721;51.238;9.562;2022-10-23T00:16:09;14.70;98.50
3416;DHT22;1721;51.238;9.562;2022-10-23T00:18:36;14.60;98.40
3416;DHT22;1721;51.238;9.562;2022-10-23T00:21:03;14.60;98.30
3416;DHT22;1721;51.238;9.562;2022-10-23T00:23:29;14.60;98.30
3416;DHT22;1721;51.238;9.562;2022-10-23T00:25:54;14.60;98.20
3416;DHT22;1721;51.238;9.562;2022-10-23T00:28:20;14.60;98.30
3416;DHT22;1721;51.238;9.562;2022-10-23T00:30:45;14.60;98.30
3416;DHT22;1721;51.238;9.562;2022-10-23T00:33:11;14.60;98.40
3416;DHT22;1721;51.238;9.562;2022-10-23T00:35:40;14.50;98.30
3416;DHT22;1721;51.238;9.562;2022-10-23T00:38:07;14.50;98.40
3416;DHT22;1721;51.238;9.562;2022-10-23T00:40:33;14.50;98.40
3416;DHT22;1721;51.238;9.562;2022-10-23T00:42:59;14.50;98.40
3416;DHT22;1721;51.238;9.562;2022-10-23T00:45:26;14.40;98.50
3416;DHT22;1721;51.238;9.562;2022-10-23T00:47:53;14.40;98.40
3416;DHT22;1721;51.238;9.562;2022-10-23T00:50:21;14.40;98.30
3416;DHT22;1721;51.238;9.562;2022-10-23T00:52:49;14.40;98.30
3416;DHT22;1721;51.238;9.562;2022-10-23T00:55:17;14.40;98.20
3416;DHT22;1721;51.238;9.562;2022-10-23T00:57:44;14.40;98.30
3416;DHT22;1721;51.238;9.562;2022-10-23T01:00:23;14.40;98.20
3416;DHT22;1721;51.238;9.562;2022-10-23T01:02:50;14.40;98.20
3416;DHT22;1721;51.238;9.562;2022-10-23T01:05:16;14.40;98.20
3416;DHT22;1721;51.238;9.562;2022-10-23T01:07:50;14.40;98.10
3416;DHT22;1721;51.238;9.562;2022-10-23T01:10:32;14.30;98.10
3416;DHT22;1721;51.238;9.562;2022-10-23T01:13:11;14.30;98.10
3416;DHT22;1721;51.238;9.562;2022-10-23T01:15:58;14.30;98.00
3416;DHT22;1721;51.238;9.562;2022-10-23T01:18:50;14.20;97.90
3416;DHT22;1721;51.238;9.562;2022-10-23T01:21:29;14.20;97.90
3416;DHT22;1721;51.238;9.562;2022-10-23T01:29:40;14.10;97.90
3416;DHT22;1721;51.238;9.562;2022-10-23T01:32:18;14.10;98.00
3416;DHT22;1721;51.238;9.562;2022-10-23T01:34:56;14.00;98.00
3416;DHT22;1721;51.238;9.562;2022-10-23T01:37:30;14.00;98.00
3416;DHT22;1721;51.238;9.562;2022-10-23T01:40:00;14.00;97.90
3416;DHT22;1721;51.238;9.562;2022-10-23T01:42:32;14.00;97.90
3416;DHT22;1721;51.238;9.562;2022-10-23T01:45:27;13.90;98.00
3416;DHT22;1721;51.238;9.562;2022-10-23T01:47:56;13.90;97.90
3416;DHT22;1721;51.238;9.562;2022-10-23T01:50:24;13.90;97.90
3416;DHT22;1721;51.238;9.562;2022-10-23T01:52:51;13.80;97.80
3416;DHT22;1721;51.238;9.562;2022-10-23T01:55:17;13.80;97.90
3416;DHT22;1721;51.238;9.562;2022-10-23T01:57:44;13.80;97.90
3416;DHT22;1721;51.238;9.562;2022-10-23T02:00:14;13.80;97.90
3416;DHT22;1721;51.238;9.562;2022-10-23T02:02:41;13.80;98.00
3416;DHT22;1721;51.238;9.562;2022-10-23T02:05:26;13.80;97.90
3416;DHT22;1721;51.238;9.562;2022-10-23T02:07:53;13.70;97.80
3416;DHT22;1721;51.238;9.562;2022-10-23T02:10:20;13.70;98.00
3416;DHT22;1721;51.238;9.562;2022-10-23T02:13:22;13.70;97.90
3416;DHT22;1721;51.238;9.562;2022-10-23T02:18:46;13.70;97.90
3416;DHT22;1721;51.238;9.562;2022-10-23T02:21:30;13.60;97.90
3416;DHT22;1721;51.238;9.562;2022-10-23T02:24:02;13.60;98.00
3416;DHT22;1721;51.238;9.562;2022-10-23T02:26:35;13.60;98.10
3416;DHT22;1721;51.238;9.562;2022-10-23T02:29:09;13.60;98.00
3416;DHT22;1721;51.238;9.562;2022-10-23T02:31:36;13.60;98.10
3416;DHT22;1721;51.238;9.562;2022-10-23T02:34:01;13.60;98.10
3416;DHT22;1721;51.238;9.562;2022-10-23T02:36:27;13.60;98.20
3416;DHT22;1721;51.238;9.562;2022-10-23T02:38:53;13.30;99.10
3416;DHT22;1721;51.238;9.562;2022-10-23T02:44:08;13.50;98.80
3416;DHT22;1721;51.238;9.562;2022-10-23T02:52:20;13.60;98.60
3416;DHT22;1721;51.238;9.562;2022-10-23T02:54:58;13.60;98.90
3416;DHT22;1721;51.238;9.562;2022-10-23T02:57:34;13.60;98.50
3416;DHT22;1721;51.238;9.562;2022-10-23T03:00:11;13.60;98.50
3416;DHT22;1721;51.238;9.562;2022-10-23T03:02:44;13.60;98.50
3416;DHT22;1721;51.238;9.562;2022-10-23T03:05:15;13.60;98.50
3416;DHT22;1721;51.238;9.562;2022-10-23T03:07:42;13.60;98.40
3416;DHT22;1721;51.238;9.562;2022-10-23T03:10:09;13.60;98.50
3416;DHT22;1721;51.238;9.562;2022-10-23T03:12:35;13.60;98.50
3416;DHT22;1721;51.238;9.562;2022-10-23T03:15:00;13.60;98.40
3416;DHT22;1721;51.238;9.562;2022-10-23T03:17:26;13.60;98.40
3416;DHT22;1721;51.238;9.562;2022-10-23T03:19:52;13.60;98.40
3416;DHT22;1721;51.238;9.562;2022-10-23T03:22:17;13.60;98.40
3416;DHT22;1721;51.238;9.562;2022-10-23T03:24:43;13.60;98.30
3416;DHT22;1721;51.238;9.562;2022-10-23T03:27:08;13.60;98.30
3416;DHT22;1721;51.238;9.562;2022-10-23T03:29:36;13.60;98.30
3416;DHT22;1721;51.238;9.562;2022-10-23T03:32:02;13.60;98.20
3416;DHT22;1721;51.238;9.562;2022-10-23T03:34:28;13.60;98.20
3416;DHT22;1721;51.238;9.562;2022-10-23T03:36:54;13.60;98.10
3416;DHT22;1721;51.238;9.562;2022-10-23T03:39:20;13.50;98.10
3416;DHT22;1721;51.238;9.562;2022-10-23T03:41:45;13.50;98.10
3416;DHT22;1721;51.238;9.562;2022-10-23T03:44:11;13.50;98.00
3416;DHT22;1721;51.238;9.562;2022-10-23T03:46:36;13.50;98.00
3416;DHT22;1721;51.238;9.562;2022-10-23T03:49:02;13.50;98.00
3416;DHT22;1721;51.238;9.562;2022-10-23T03:51:28;13.40;97.90
3416;DHT22;1721;51.238;9.562;2022-10-23T03:53:54;13.40;98.00
3416;DHT22;1721;51.238;9.562;2022-10-23T03:56:19;13.40;98.00
3416;DHT22;1721;51.238;9.562;2022-10-23T03:58:45;13.40;98.00
3416;DHT22;1721;51.238;9.562;2022-10-23T04:01:11;13.40;98.00
3416;DHT22;1721;51.238;9.562;2022-10-23T04:03:36;13.40;97.90
3416;DHT22;1721;51.238;9.562;2022-10-23T04:06:02;13.40;97.90
3416;DHT22;1721;51.238;9.562;2022-10-23T04:08:27;13.40;97.90
3416;DHT22;1721;51.238;9.562;2022-10-23T04:10:53;13.40;97.90
3416;DHT22;1721;51.238;9.562;2022-10-23T04:13:19;13.30;97.80
3416;DHT22;1721;51.238;9.562;2022-10-23T04:15:51;13.30;97.80
3416;DHT22;1721;51.238;9.562;2022-10-23T04:18:18;13.30;97.70
3416;DHT22;1721;51.238;9.562;2022-10-23T04:20:47;13.30;97.70
3416;DHT22;1721;51.238;9.562;2022-10-23T04:23:13;13.20;97.70
3416;DHT22;1721;51.238;9.562;2022-10-23T04:25:39;13.20;97.70
3416;DHT22;1721;51.238;9.562;2022-10-23T04:28:04;13.20;97.70
3416;DHT22;1721;51.238;9.562;2022-10-23T04:30:30;13.20;97.80
3416;DHT22;1721;51.238;9.562;2022-10-23T04:32:55;13.20;97.70
3416;DHT22;1721;51.238;9.562;2022-10-23T04:35:21;13.10;97.50
3416;DHT22;1721;51.238;9.562;2022-10-23T04:37:47;13.10;97.70
3416;DHT22;1721;51.238;9.562;2022-10-23T04:40:12;13.10;97.60
3416;DHT22;1721;51.238;9.562;2022-10-23T04:42:38;13.00;97.50
3416;DHT22;1721;51.238;9.562;2022-10-23T04:45:04;13.00;97.50
3416;DHT22;1721;51.238;9.562;2022-10-23T04:47:29;13.00;97.50
3416;DHT22;1721;51.238;9.562;2022-10-23T04:49:55;13.00;97.50
3416;DHT22;1721;51.238;9.562;2022-10-23T04:52:21;13.00;97.60
3416;DHT22;1721;51.238;9.562;2022-10-23T04:54:46;13.00;97.50
3416;DHT22;1721;51.238;9.562;2022-10-23T04:57:12;13.00;97.60
3416;DHT22;1721;51.238;9.562;2022-10-23T04:59:38;13.00;97.60
3416;DHT22;1721;51.238;9.562;2022-10-23T05:02:03;13.00;97.70
3416;DHT22;1721;51.238;9.562;2022-10-23T05:04:29;13.00;97.70
3416;DHT22;1721;51.238;9.562;2022-10-23T05:06:55;13.00;97.80
3416;DHT22;1721;51.238;9.562;2022-10-23T05:09:20;13.10;97.90
3416;DHT22;1721;51.238;9.562;2022-10-23T05:11:47;13.10;97.90
3416;DHT22;1721;51.238;9.562;2022-10-23T05:14:12;13.10;98.00
3416;DHT22;1721;51.238;9.562;2022-10-23T05:17:00;13.10;98.00
3416;DHT22;1721;51.238;9.562;2022-10-23T05:19:32;13.20;98.10
3416;DHT22;1721;51.238;9.562;2022-10-23T05:21:59;13.20;98.00
3416;DHT22;1721;51.238;9.562;2022-10-23T05:24:25;13.20;97.90
3416;DHT22;1721;51.238;9.562;2022-10-23T05:26:51;13.20;98.00
3416;DHT22;1721;51.238;9.562;2022-10-23T05:29:18;13.10;97.80
3416;DHT22;1721;51.238;9.562;2022-10-23T05:31:45;13.10;97.80
3416;DHT22;1721;51.238;9.562;2022-10-23T05:34:14;13.20;97.90
3416;DHT22;1721;51.238;9.562;2022-10-23T05:36:41;13.10;97.90
3416;DHT22;1721;51.238;9.562;2022-10-23T05:39:07;13.00;98.30
3416;DHT22;1721;51.238;9.562;2022-10-23T05:41:33;13.00;98.30
3416;DHT22;1721;51.238;9.562;2022-10-23T05:43:58;13.10;98.30
3416;DHT22;1721;51.238;9.562;2022-10-23T05:59:35;13.10;98.80
3416;DHT22;1721;51.238;9.562;2022-10-23T06:02:01;13.20;98.70
3416;DHT22;1721;51.238;9.562;2022-10-23T06:04:26;13.10;98.70
3416;DHT22;1721;51.238;9.562;2022-10-23T06:06:52;13.10;98.90
3416;DHT22;1721;51.238;9.562;2022-10-23T06:09:17;13.20;98.90
3416;DHT22;1721;51.238;9.562;2022-10-23T06:11:43;13.20;98.80
3416;DHT22;1721;51.238;9.562;2022-10-23T06:14:09;13.30;99.00
3416;DHT22;1721;51.238;9.562;2022-10-23T06:16:34;13.40;99.00
3416;DHT22;1721;51.238;9.562;2022-10-23T06:19:00;13.50;99.00
3416;DHT22;1721;51.238;9.562;2022-10-23T06:21:26;13.60;99.00
3416;DHT22;1721;51.238;9.562;2022-10-23T06:23:51;13.50;99.10
3416;DHT22;1721;51.238;9.562;2022-10-23T06:26:18;13.60;99.10
3416;DHT22;1721;51.238;9.562;2022-10-23T06:28:43;13.60;99.00
3416;DHT22;1721;51.238;9.562;2022-10-23T06:31:14;13.60;98.90
3416;DHT22;1721;51.238;9.562;2022-10-23T06:33:40;13.70;98.80
3416;DHT22;1721;51.238;9.562;2022-10-23T06:36:06;13.80;98.80
3416;DHT22;1721;51.238;9.562;2022-10-23T06:38:35;13.80;98.90
3416;DHT22;1721;51.238;9.562;2022-10-23T06:41:03;13.60;98.90
3416;DHT22;1721;51.238;9.562;2022-10-23T06:43:29;13.60;99.40
3416;DHT22;1721;51.238;9.562;2022-10-23T06:45:54;13.70;99.30
3416;DHT22;1721;51.238;9.562;2022-10-23T06:48:20;13.70;99.00
3416;DHT22;1721;51.238;9.562;2022-10-23T06:50:46;13.70;99.00
3416;DHT22;1721;51.238;9.562;2022-10-23T06:53:11;13.80;99.20
3416;DHT22;1721;51.238;9.562;2022-10-23T06:55:37;13.80;98.80
3416;DHT22;1721;51.238;9.562;2022-10-23T06:58:05;13.90;98.90
3416;DHT22;1721;51.238;9.562;2022-10-23T07:00:37;13.90;99.10
3416;DHT22;1721;51.238;9.562;2022-10-23T07:03:03;14.00;98.80
3416;DHT22;1721;51.238;9.562;2022-10-23T07:05:29;13.90;98.70
3416;DHT22;1721;51.238;9.562;2022-10-23T07:07:54;14.00;98.80
3416;DHT22;1721;51.238;9.562;2022-10-23T07:10:20;14.00;98.90
3416;DHT22;1721;51.238;9.562;2022-10-23T07:12:46;14.20;99.00
3416;DHT22;1721;51.238;9.562;2022-10-23T07:15:13;14.30;98.90
3416;DHT22;1721;51.238;9.562;2022-10-23T07:17:39;14.30;98.80
3416;DHT22;1721;51.238;9.562;2022-10-23T07:20:05;14.40;98.90
3416;DHT22;1721;51.238;9.562;2022-10-23T07:22:30;14.50;99.00
3416;DHT22;1721;51.238;9.562;2022-10-23T07:24:56;14.60;99.00
3416;DHT22;1721;51.238;9.562;2022-10-23T07:27:22;14.60;98.80
3416;DHT22;1721;51.238;9.562;2022-10-23T07:29:51;14.80;99.00
3416;DHT22;1721;51.238;9.562;2022-10-23T07:32:17;14.90;99.40
3416;DHT22;1721;51.238;9.562;2022-10-23T07:34:43;15.00;99.10
3416;DHT22;1721;51.238;9.562;2022-10-23T07:37:09;15.10;99.10
3416;DHT22;1721;51.238;9.562;2022-10-23T07:39:34;15.20;99.20
3416;DHT22;1721;51.238;9.562;2022-10-23T07:42:00;15.10;99.30
3416;DHT22;1721;51.238;9.562;2022-10-23T07:44:26;15.20;99.30
3416;DHT22;1721;51.238;9.562;2022-10-23T07:46:51;15.10;99.90
3416;DHT22;1721;51.238;9.562;2022-10-23T07:49:17;15.10;99.90
3416;DHT22;1721;51.238;9.562;2022-10-23T07:51:42;15.00;99.90
3416;DHT22;1721;51.238;9.562;2022-10-23T07:54:11;15.30;99.90
3416;DHT22;1721;51.238;9.562;2022-10-23T07:56:37;15.30;99.90
3416;DHT22;1721;51.238;9.562;2022-10-23T07:59:03;15.50;99.90
3416;DHT22;1721;51.238;9.562;2022-10-23T08:01:29;15.60;99.90
3416;DHT22;1721;51.238;9.562;2022-10-23T08:03:56;15.60;99.60
3416;DHT22;1721;51.238;9.562;2022-10-23T08:06:22;15.30;99.90
3416;DHT22;1721;51.238;9.562;2022-10-23T08:08:47;15.40;99.90
3416;DHT22;1721;51.238;9.562;2022-10-23T08:11:14;15.40;99.90
3416;DHT22;1721;51.238;9.562;2022-10-23T08:13:42;15.50;99.80
3416;DHT22;1721;51.238;9.562;2022-10-23T08:16:09;15.60;99.90
3416;DHT22;1721;51.238;9.562;2022-10-23T08:18:34;15.70;99.60
3416;DHT22;1721;51.238;9.562;2022-10-23T08:21:02;15.90;99.50
3416;DHT22;1721;51.238;9.562;2022-10-23T08:23:28;16.10;99.30
3416;DHT22;1721;51.238;9.562;2022-10-23T08:25:59;16.30;99.30
3416;DHT22;1721;51.238;9.562;2022-10-23T08:28:26;16.30;98.60
3416;DHT22;1721;51.238;9.562;2022-10-23T08:30:52;16.00;98.70
3416;DHT22;1721;51.238;9.562;2022-10-23T08:33:18;16.10;98.80
3416;DHT22;1721;51.238;9.562;2022-10-23T08:35:44;16.00;98.60
3416;DHT22;1721;51.238;9.562;2022-10-23T08:38:10;15.90;98.60
3416;DHT22;1721;51.238;9.562;2022-10-23T08:40:35;16.30;98.40
3416;DHT22;1721;51.238;9.562;2022-10-23T08:45:37;16.70;98.00
3416;DHT22;1721;51.238;9.562;2022-10-23T08:48:27;16.60;97.20
3416;DHT22;1721;51.238;9.562;2022-10-23T08:50:57;16.40;97.50
3416;DHT22;1721;51.238;9.562;2022-10-23T08:53:50;16.60;97.70
3416;DHT22;1721;51.238;9.562;2022-10-23T08:56:27;16.60;97.70
3416;DHT22;1721;51.238;9.562;2022-10-23T08:59:10;16.60;97.30
3416;DHT22;1721;51.238;9.562;2022-10-23T09:01:46;16.70;97.00
3416;DHT22;1721;51.238;9.562;2022-10-23T09:04:14;16.60;97.30
3416;DHT22;1721;51.238;9.562;2022-10-23T09:06:53;16.80;97.30
3416;DHT22;1721;51.238;9.562;2022-10-23T09:12:28;17.30;97.10
3416;DHT22;1721;51.238;9.562;2022-10-23T09:15:19;17.50;96.30
3416;DHT22;1721;51.238;9.562;2022-10-23T09:17:52;17.60;95.40
3416;DHT22;1721;51.238;9.562;2022-10-23T09:20:26;17.90;96.00
3416;DHT22;1721;51.238;9.562;2022-10-23T09:22:59;18.00;96.10
3416;DHT22;1721;51.238;9.562;2022-10-23T09:25:28;18.10;95.60
3416;DHT22;1721;51.238;9.562;2022-10-23T09:27:57;18.00;95.30
3416;DHT22;1721;51.238;9.562;2022-10-23T09:32:54;18.50;95.20
3416;DHT22;1721;51.238;9.562;2022-10-23T09:35:25;18.40;95.10
3416;DHT22;1721;51.238;9.562;2022-10-23T09:37:51;18.60;94.90
3416;DHT22;1721;51.238;9.562;2022-10-23T09:40:45;18.60;94.60
3416;DHT22;1721;51.238;9.562;2022-10-23T09:43:15;18.60;94.50
3416;DHT22;1721;51.238;9.562;2022-10-23T09:45:41;18.80;94.40
3416;DHT22;1721;51.238;9.562;2022-10-23T09:48:18;18.50;94.50
3416;DHT22;1721;51.238;9.562;2022-10-23T09:50:55;18.50;93.60
3416;DHT22;1721;51.238;9.562;2022-10-23T09:53:33;18.50;94.30
3416;DHT22;1721;51.238;9.562;2022-10-23T09:56:06;18.60;94.50
3416;DHT22;1721;51.238;9.562;2022-10-23T09:58:39;18.90;93.80
3416;DHT22;1721;51.238;9.562;2022-10-23T10:01:22;18.90;93.60
3416;DHT22;1721;51.238;9.562;2022-10-23T10:03:49;19.00;93.80
3416;DHT22;1721;51.238;9.562;2022-10-23T10:06:22;19.10;93.90
3416;DHT22;1721;51.238;9.562;2022-10-23T10:08:52;18.90;93.00
3416;DHT22;1721;51.238;9.562;2022-10-23T10:17:05;18.40;93.60
3416;DHT22;1721;51.238;9.562;2022-10-23T10:19:52;18.40;93.70
3416;DHT22;1721;51.238;9.562;2022-10-23T10:22:35;18.30;93.70
3416;DHT22;1721;51.238;9.562;2022-10-23T10:25:35;18.60;93.90
3416;DHT22;1721;51.238;9.562;2022-10-23T10:33:17;18.30;94.10
3416;DHT22;1721;51.238;9.562;2022-10-23T10:35:55;18.40;93.90
3416;DHT22;1721;51.238;9.562;2022-10-23T10:46:42;18.60;93.90
3416;DHT22;1721;51.238;9.562;2022-10-23T10:49:58;18.50;93.90
3416;DHT22;1721;51.238;9.562;2022-10-23T10:52:15;18.60;94.10
3416;DHT22;1721;51.238;9.562;2022-10-23T10:55:01;18.90;94.30
3416;DHT22;1721;51.238;9.562;2022-10-23T10:57:38;18.90;93.90
3416;DHT22;1721;51.238;9.562;2022-10-23T11:00:17;18.90;94.00
3416;DHT22;1721;51.238;9.562;2022-10-23T11:08:04;19.10;94.10
3416;DHT22;1721;51.238;9.562;2022-10-23T11:10:31;19.20;93.70
3416;DHT22;1721;51.238;9.562;2022-10-23T11:12:57;19.30;93.60
3416;DHT22;1721;51.238;9.562;2022-10-23T11:15:34;19.40;93.30
3416;DHT22;1721;51.238;9.562;2022-10-23T11:18:10;19.50;93.50
3416;DHT22;1721;51.238;9.562;2022-10-23T11:20:44;19.50;92.70
3416;DHT22;1721;51.238;9.562;2022-10-23T11:23:49;19.40;92.90
3416;DHT22;1721;51.238;9.562;2022-10-23T11:38:15;19.20;93.20
3416;DHT22;1721;51.238;9.562;2022-10-23T11:40:50;19.00;92.40
3416;DHT22;1721;51.238;9.562;2022-10-23T11:43:31;19.10;92.90
3416;DHT22;1721;51.238;9.562;2022-10-23T11:45:58;19.30;92.80
3416;DHT22;1721;51.238;9.562;2022-10-23T11:48:38;19.30;93.40
3416;DHT22;1721;51.238;9.562;2022-10-23T11:51:04;19.40;92.60
3416;DHT22;1721;51.238;9.562;2022-10-23T11:55:58;19.20;92.60
3416;DHT22;1721;51.238;9.562;2022-10-23T11:58:50;19.30;92.90
3416;DHT22;1721;51.238;9.562;2022-10-23T12:01:41;19.70;92.80
3416;DHT22;1721;51.238;9.562;2022-10-23T12:07:00;20.40;92.60
3416;DHT22;1721;51.238;9.562;2022-10-23T12:09:30;20.30;91.70
3416;DHT22;1721;51.238;9.562;2022-10-23T12:12:15;20.20;92.00
3416;DHT22;1721;51.238;9.562;2022-10-23T12:14:49;20.00;92.00
3416;DHT22;1721;51.238;9.562;2022-10-23T12:17:29;20.10;92.20
3416;DHT22;1721;51.238;9.562;2022-10-23T12:20:02;20.00;92.50
3416;DHT22;1721;51.238;9.562;2022-10-23T12:22:41;19.80;92.40
3416;DHT22;1721;51.238;9.562;2022-10-23T12:25:18;20.00;92.10
3416;DHT22;1721;51.238;9.562;2022-10-23T12:28:15;19.90;92.10
3416;DHT22;1721;51.238;9.562;2022-10-23T12:31:12;19.70;92.30
3416;DHT22;1721;51.238;9.562;2022-10-23T12:38:47;18.90;92.90
3416;DHT22;1721;51.238;9.562;2022-10-23T12:41:24;19.00;93.10
3416;DHT22;1721;51.238;9.562;2022-10-23T12:44:01;18.90;93.60
3416;DHT22;1721;51.238;9.562;2022-10-23T12:46:34;19.10;93.50
3416;DHT22;1721;51.238;9.562;2022-10-23T12:49:03;19.00;93.40
3416;DHT22;1721;51.238;9.562;2022-10-23T12:51:35;18.90;93.60
3416;DHT22;1721;51.238;9.562;2022-10-23T12:54:02;18.70;93.00
3416;DHT22;1721;51.238;9.562;2022-10-23T12:56:35;18.50;93.80
3416;DHT22;1721;51.238;9.562;2022-10-23T12:59:01;18.50;93.90
3416;DHT22;1721;51.238;9.562;2022-10-23T13:01:32;18.70;93.80
3416;DHT22;1721;51.238;9.562;2022-10-23T13:04:07;18.80;93.60
3416;DHT22;1721;51.238;9.562;2022-10-23T13:06:39;18.70;93.30
3416;DHT22;1721;51.238;9.562;2022-10-23T13:09:22;18.70;93.60
3416;DHT22;1721;51.238;9.562;2022-10-23T13:11:49;18.70;93.90
3416;DHT22;1721;51.238;9.562;2022-10-23T13:14:32;18.50;94.00
3416;DHT22;1721;51.238;9.562;2022-10-23T13:17:03;18.40;93.80
3416;DHT22;1721;51.238;9.562;2022-10-23T13:19:29;18.40;93.50
3416;DHT22;1721;51.238;9.562;2022-10-23T13:21:55;18.40;93.90
3416;DHT22;1721;51.238;9.562;2022-10-23T13:24:22;18.40;93.70
3416;DHT22;1721;51.238;9.562;2022-10-23T13:26:49;18.70;93.80
3416;DHT22;1721;51.238;9.562;2022-10-23T13:31:48;18.70;93.70
3416;DHT22;1721;51.238;9.562;2022-10-23T13:34:24;18.80;93.80
3416;DHT22;1721;51.238;9.562;2022-10-23T13:39:23;18.90;93.20
3416;DHT22;1721;51.238;9.562;2022-10-23T13:41:49;19.10;93.50
3416;DHT22;1721;51.238;9.562;2022-10-23T13:44:17;19.10;93.70
3416;DHT22;1721;51.238;9.562;2022-10-23T13:46:42;19.20;93.70
3416;DHT22;1721;51.238;9.562;2022-10-23T13:49:08;19.30;93.20
3416;DHT22;1721;51.238;9.562;2022-10-23T13:51:41;19.30;92.70
3416;DHT22;1721;51.238;9.562;2022-10-23T13:54:13;19.30;92.00
3416;DHT22;1721;51.238;9.562;2022-10-23T13:56:39;18.90;92.20
3416;DHT22;1721;51.238;9.562;2022-10-23T13:59:05;19.00;92.30
3416;DHT22;1721;51.238;9.562;2022-10-23T14:01:34;19.00;92.20
3416;DHT22;1721;51.238;9.562;2022-10-23T14:04:01;19.10;91.80
3416;DHT22;1721;51.238;9.562;2022-10-23T14:06:28;19.10;92.40
3416;DHT22;1721;51.238;9.562;2022-10-23T14:08:54;19.00;92.20
3416;DHT22;1721;51.238;9.562;2022-10-23T14:11:20;19.10;92.20
3416;DHT22;1721;51.238;9.562;2022-10-23T14:13:46;19.10;92.30
3416;DHT22;1721;51.238;9.562;2022-10-23T14:16:13;19.10;92.00
3416;DHT22;1721;51.238;9.562;2022-10-23T14:18:40;18.90;91.90
3416;DHT22;1721;51.238;9.562;2022-10-23T14:21:06;18.70;92.00
3416;DHT22;1721;51.238;9.562;2022-10-23T14:23:33;18.60;92.00
3416;DHT22;1721;51.238;9.562;2022-10-23T14:26:10;18.90;92.20
3416;DHT22;1721;51.238;9.562;2022-10-23T14:28:36;18.90;91.50
3416;DHT22;1721;51.238;9.562;2022-10-23T14:31:09;18.90;91.50
3416;DHT22;1721;51.238;9.562;2022-10-23T14:33:35;18.60;91.60
3416;DHT22;1721;51.238;9.562;2022-10-23T14:36:00;18.60;91.80
3416;DHT22;1721;51.238;9.562;2022-10-23T14:38:26;18.70;91.90
3416;DHT22;1721;51.238;9.562;2022-10-23T14:40:52;18.60;91.80
3416;DHT22;1721;51.238;9.562;2022-10-23T14:43:18;18.80;91.80
3416;DHT22;1721;51.238;9.562;2022-10-23T14:45:44;18.90;92.00
3416;DHT22;1721;51.238;9.562;2022-10-23T14:48:09;19.00;92.20
3416;DHT22;1721;51.238;9.562;2022-10-23T14:50:36;19.00;92.00
3416;DHT22;1721;51.238;9.562;2022-10-23T14:53:06;18.80;91.80
3416;DHT22;1721;51.238;9.562;2022-10-23T14:55:32;18.70;92.30
3416;DHT22;1721;51.238;9.562;2022-10-23T14:57:57;18.60;92.30
3416;DHT22;1721;51.238;9.562;2022-10-23T15:00:23;18.60;92.10
3416;DHT22;1721;51.238;9.562;2022-10-23T15:02:49;18.50;92.30
3416;DHT22;1721;51.238;9.562;2022-10-23T15:05:14;18.50;92.20
3416;DHT22;1721;51.238;9.562;2022-10-23T15:07:40;18.20;92.50
3416;DHT22;1721;51.238;9.562;2022-10-23T15:10:06;18.20;92.90
3416;DHT22;1721;51.238;9.562;2022-10-23T15:12:34;18.30;92.80
3416;DHT22;1721;51.238;9.562;2022-10-23T15:15:00;18.10;92.80
3416;DHT22;1721;51.238;9.562;2022-10-23T15:17:26;18.10;93.10
3416;DHT22;1721;51.238;9.562;2022-10-23T15:19:52;18.30;93.00
3416;DHT22;1721;51.238;9.562;2022-10-23T15:22:17;18.50;92.90
3416;DHT22;1721;51.238;9.562;2022-10-23T15:24:44;18.60;92.80
3416;DHT22;1721;51.238;9.562;2022-10-23T15:27:10;18.40;93.20
3416;DHT22;1721;51.238;9.562;2022-10-23T15:29:36;18.10;93.10
3416;DHT22;1721;51.238;9.562;2022-10-23T15:32:02;18.00;93.10
3416;DHT22;1721;51.238;9.562;2022-10-23T15:34:29;18.10;93.10
3416;DHT22;1721;51.238;9.562;2022-10-23T15:36:57;17.90;93.20
3416;DHT22;1721;51.238;9.562;2022-10-23T15:39:25;18.00;93.20
3416;DHT22;1721;51.238;9.562;2022-10-23T15:41:53;18.00;93.10
3416;DHT22;1721;51.238;9.562;2022-10-23T15:44:22;17.80;93.30
3416;DHT22;1721;51.238;9.562;2022-10-23T15:46:48;17.90;93.40
3416;DHT22;1721;51.238;9.562;2022-10-23T15:49:14;17.70;93.60
3416;DHT22;1721;51.238;9.562;2022-10-23T15:51:40;17.80;93.70
3416;DHT22;1721;51.238;9.562;2022-10-23T15:54:08;17.70;93.70
3416;DHT22;1721;51.238;9.562;2022-10-23T15:56:35;17.60;93.70
3416;DHT22;1721;51.238;9.562;2022-10-23T15:59:00;17.50;93.50
3416;DHT22;1721;51.238;9.562;2022-10-23T16:01:26;17.60;93.70
3416;DHT22;1721;51.238;9.562;2022-10-23T16:03:52;17.30;93.70
3416;DHT22;1721;51.238;9.562;2022-10-23T16:06:18;17.20;93.90
3416;DHT22;1721;51.238;9.562;2022-10-23T16:08:45;17.10;94.00
3416;DHT22;1721;51.238;9.562;2022-10-23T16:13:38;17.10;93.90
3416;DHT22;1721;51.238;9.562;2022-10-23T16:16:04;17.10;94.00
3416;DHT22;1721;51.238;9.562;2022-10-23T16:18:30;16.90;94.10
3416;DHT22;1721;51.238;9.562;2022-10-23T16:20:56;16.80;94.20
3416;DHT22;1721;51.238;9.562;2022-10-23T16:23:21;16.90;94.30
3416;DHT22;1721;51.238;9.562;2022-10-23T16:25:47;16.80;94.30
3416;DHT22;1721;51.238;9.562;2022-10-23T16:28:12;16.70;94.50
3416;DHT22;1721;51.238;9.562;2022-10-23T16:30:42;16.70;94.50
3416;DHT22;1721;51.238;9.562;2022-10-23T16:33:08;16.80;94.50
3416;DHT22;1721;51.238;9.562;2022-10-23T16:35:33;16.80;94.40
3416;DHT22;1721;51.238;9.562;2022-10-23T16:38:00;16.90;94.60
3416;DHT22;1721;51.238;9.562;2022-10-23T16:40:26;16.80;94.40
3416;DHT22;1721;51.238;9.562;2022-10-23T16:42:51;16.80;94.10
3416;DHT22;1721;51.238;9.562;2022-10-23T16:45:17;16.90;94.20
3416;DHT22;1721;51.238;9.562;2022-10-23T16:47:42;16.90;94.40
3416;DHT22;1721;51.238;9.562;2022-10-23T16:50:08;17.00;93.90
3416;DHT22;1721;51.238;9.562;2022-10-23T16:52:34;17.10;94.00
3416;DHT22;1721;51.238;9.562;2022-10-23T16:54:59;17.20;93.70
3416;DHT22;1721;51.238;9.562;2022-10-23T16:57:25;17.00;93.80
3416;DHT22;1721;51.238;9.562;2022-10-23T16:59:54;17.00;93.80
3416;DHT22;1721;51.238;9.562;2022-10-23T17:02:19;17.20;93.80
3416;DHT22;1721;51.238;9.562;2022-10-23T17:04:45;17.40;93.60
3416;DHT22;1721;51.238;9.562;2022-10-23T17:07:10;17.30;93.50
3416;DHT22;1721;51.238;9.562;2022-10-23T17:09:39;17.20;93.50
3416;DHT22;1721;51.238;9.562;2022-10-23T17:12:05;17.30;93.60
3416;DHT22;1721;51.238;9.562;2022-10-23T17:14:31;17.30;93.70
3416;DHT22;1721;51.238;9.562;2022-10-23T17:16:58;17.20;94.00
3416;DHT22;1721;51.238;9.562;2022-10-23T17:19:27;17.30;93.70
3416;DHT22;1721;51.238;9.562;2022-10-23T17:21:54;17.40;93.70
3416;DHT22;1721;51.238;9.562;2022-10-23T17:24:20;17.30;93.70
3416;DHT22;1721;51.238;9.562;2022-10-23T17:26:46;17.30;93.70
3416;DHT22;1721;51.238;9.562;2022-10-23T17:29:13;17.30;93.80
3416;DHT22;1721;51.238;9.562;2022-10-23T17:31:42;17.40;93.60
3416;DHT22;1721;51.238;9.562;2022-10-23T17:34:10;17.50;93.40
3416;DHT22;1721;51.238;9.562;2022-10-23T17:36:40;17.50;93.40
3416;DHT22;1721;51.238;9.562;2022-10-23T17:39:09;17.60;93.30
3416;DHT22;1721;51.238;9.562;2022-10-23T17:41:36;17.50;93.50
3416;DHT22;1721;51.238;9.562;2022-10-23T17:44:02;17.50;93.70
3416;DHT22;1721;51.238;9.562;2022-10-23T17:46:28;17.30;93.40
3416;DHT22;1721;51.238;9.562;2022-10-23T17:48:58;17.30;93.60